KGCK/GCK METAR and TAF weather

Enter ICAO airport designator
Station Type Date Time Source
KGCK METAR 2021/04/13 06:54 UTC NOAA

KGCK 130654Z AUTO 03008KT 10SM CLR 04/M07 A3019 RMK AO2 SLP224 T00391067


Station Type Date Time Source
KGCK Decoded METAR 2021/04/13 06:54 UTC NOAA

GARDEN CITY REGIONAL AIRPORT, KS, United States (KGCK) 37-55N 100-43W 877M
Apr 13, 2021 - 02:54 AM EDT / 2021.04.13 0654 UTC
Wind: from the NNE (030 degrees) at 9 MPH (8 KT):0
Visibility: 10 mile(s):0
Sky conditions: clear
Temperature: 39.0 F (3.9 C)
Dew Point: 19.9 F (-6.7 C)
Relative Humidity: 45%
Pressure (altimeter): 30.19 in. Hg (1022 hPa)
ob: KGCK 130654Z AUTO 03008KT 10SM CLR 04/M07 A3019 RMK AO2 SLP224 T00391067
cycle: 7

Station Type Date Time Source
KGCK TAF 2021/04/13 06:21 UTC NOAA

TAF KGCK 130520Z 1306/1406 02004KT P6SM SKC
FM132000 08008KT P6SM BKN100

Example: see airport list